sensor_id;sensor_type;location;lat;lon;timestamp;pressure;altitude;pressure_sealevel;temperature;humidity
66742;BME280;53654;54.152;19.432;2022-12-29T00:00:25;100829.69;;;7.64;79.61
66742;BME280;53654;54.152;19.432;2022-12-29T00:03:13;100829.51;;;7.64;79.65
66742;BME280;53654;54.152;19.432;2022-12-29T00:05:43;100829.52;;;7.66;79.43
66742;BME280;53654;54.152;19.432;2022-12-29T00:08:11;100822.77;;;7.69;79.26
66742;BME280;53654;54.152;19.432;2022-12-29T00:10:39;100825.20;;;7.70;79.06
66742;BME280;53654;54.152;19.432;2022-12-29T00:13:07;100828.50;;;7.71;78.94
66742;BME280;53654;54.152;19.432;2022-12-29T00:16:10;100822.22;;;7.65;79.03
66742;BME280;53654;54.152;19.432;2022-12-29T00:18:38;100821.00;;;7.64;78.88
66742;BME280;53654;54.152;19.432;2022-12-29T00:21:09;100815.96;;;7.63;78.70
66742;BME280;53654;54.152;19.432;2022-12-29T00:24:00;100817.48;;;7.53;78.67
66742;BME280;53654;54.152;19.432;2022-12-29T00:26:50;100816.91;;;7.45;78.75
66742;BME280;53654;54.152;19.432;2022-12-29T00:29:40;100805.76;;;7.36;79.11
66742;BME280;53654;54.152;19.432;2022-12-29T00:32:27;100803.63;;;7.27;79.31
66742;BME280;53654;54.152;19.432;2022-12-29T00:35:22;100798.39;;;7.22;79.55
66742;BME280;53654;54.152;19.432;2022-12-29T00:37:52;100800.46;;;7.20;79.71
66742;BME280;53654;54.152;19.432;2022-12-29T00:40:40;100798.02;;;7.17;79.77
66742;BME280;53654;54.152;19.432;2022-12-29T00:43:27;100796.62;;;7.16;80.03
66742;BME280;53654;54.152;19.432;2022-12-29T00:46:13;100797.83;;;7.16;80.41
66742;BME280;53654;54.152;19.432;2022-12-29T00:48:46;100798.54;;;7.17;80.51
66742;BME280;53654;54.152;19.432;2022-12-29T00:51:35;100797.13;;;7.14;80.56
66742;BME280;53654;54.152;19.432;2022-12-29T00:54:03;100799.55;;;7.13;80.79
66742;BME280;53654;54.152;19.432;2022-12-29T00:56:31;100800.58;;;7.11;81.05
66742;BME280;53654;54.152;19.432;2022-12-29T00:59:02;100799.88;;;7.09;81.17
66742;BME280;53654;54.152;19.432;2022-12-29T01:01:31;100793.96;;;7.07;81.33
66742;BME280;53654;54.152;19.432;2022-12-29T01:04:00;100794.27;;;7.02;81.50
66742;BME280;53654;54.152;19.432;2022-12-29T01:06:31;100788.68;;;6.97;81.87
66742;BME280;53654;54.152;19.432;2022-12-29T01:09:00;100789.70;;;6.93;82.14
66742;BME280;53654;54.152;19.432;2022-12-29T01:11:49;100787.05;;;6.86;82.24
66742;BME280;53654;54.152;19.432;2022-12-29T01:14:18;100784.94;;;6.81;82.66
66742;BME280;53654;54.152;19.432;2022-12-29T01:16:47;100784.72;;;6.76;82.90
66742;BME280;53654;54.152;19.432;2022-12-29T01:19:17;100781.93;;;6.74;83.14
66742;BME280;53654;54.152;19.432;2022-12-29T01:21:46;100780.71;;;6.73;83.32
66742;BME280;53654;54.152;19.432;2022-12-29T01:24:15;100779.84;;;6.72;83.43
66742;BME280;53654;54.152;19.432;2022-12-29T01:26:45;100776.88;;;6.70;83.50
66742;BME280;53654;54.152;19.432;2022-12-29T01:29:13;100774.78;;;6.69;83.58
66742;BME280;53654;54.152;19.432;2022-12-29T01:31:41;100770.45;;;6.69;83.88
66742;BME280;53654;54.152;19.432;2022-12-29T01:34:09;100769.23;;;6.67;83.84
66742;BME280;53654;54.152;19.432;2022-12-29T01:36:38;100770.80;;;6.69;84.04
66742;BME280;53654;54.152;19.432;2022-12-29T01:39:06;100767.70;;;6.71;84.20
66742;BME280;53654;54.152;19.432;2022-12-29T01:41:34;100764.95;;;6.73;84.32
66742;BME280;53654;54.152;19.432;2022-12-29T01:47:32;100762.31;;;6.70;84.66
66742;BME280;53654;54.152;19.432;2022-12-29T01:52:37;100754.57;;;6.78;84.92
66742;BME280;53654;54.152;19.432;2022-12-29T01:55:09;100757.39;;;6.84;84.80
66742;BME280;53654;54.152;19.432;2022-12-29T01:57:41;100756.89;;;6.88;84.88
66742;BME280;53654;54.152;19.432;2022-12-29T02:00:13;100754.98;;;6.88;84.69
66742;BME280;53654;54.152;19.432;2022-12-29T02:02:46;100753.24;;;6.87;84.71
66742;BME280;53654;54.152;19.432;2022-12-29T02:05:33;100752.89;;;6.87;84.75
66742;BME280;53654;54.152;19.432;2022-12-29T02:08:05;100749.08;;;6.87;85.06
66742;BME280;53654;54.152;19.432;2022-12-29T02:10:35;100746.83;;;6.89;84.92
66742;BME280;53654;54.152;19.432;2022-12-29T02:13:04;100742.68;;;6.89;84.88
66742;BME280;53654;54.152;19.432;2022-12-29T02:30:16;100726.09;;;6.72;85.11
66742;BME280;53654;54.152;19.432;2022-12-29T02:33:17;100728.34;;;6.71;85.33
66742;BME280;53654;54.152;19.432;2022-12-29T02:38:45;100732.01;;;6.74;85.72
66742;BME280;53654;54.152;19.432;2022-12-29T02:41:31;100731.52;;;6.80;85.75
66742;BME280;53654;54.152;19.432;2022-12-29T02:44:27;100733.64;;;6.85;85.75
66742;BME280;53654;54.152;19.432;2022-12-29T02:47:17;100741.09;;;6.86;85.59
66742;BME280;53654;54.152;19.432;2022-12-29T02:49:55;100734.86;;;6.87;85.64
66742;BME280;53654;54.152;19.432;2022-12-29T02:52:31;100736.98;;;6.91;85.58
66742;BME280;53654;54.152;19.432;2022-12-29T02:55:00;100733.87;;;6.94;85.25
66742;BME280;53654;54.152;19.432;2022-12-29T02:57:32;100731.48;;;7.00;85.12
66742;BME280;53654;54.152;19.432;2022-12-29T03:11:17;100720.94;;;7.07;84.81
66742;BME280;53654;54.152;19.432;2022-12-29T03:17:15;100722.15;;;7.07;84.40
66742;BME280;53654;54.152;19.432;2022-12-29T03:19:50;100726.14;;;7.07;84.47
66742;BME280;53654;54.152;19.432;2022-12-29T03:22:24;100722.85;;;7.08;84.47
66742;BME280;53654;54.152;19.432;2022-12-29T03:25:47;100721.27;;;7.08;84.50
66742;BME280;53654;54.152;19.432;2022-12-29T03:28:15;100712.61;;;7.07;84.57
66742;BME280;53654;54.152;19.432;2022-12-29T03:30:46;100700.65;;;7.08;84.42
66742;BME280;53654;54.152;19.432;2022-12-29T03:33:20;100691.80;;;7.10;84.49
66742;BME280;53654;54.152;19.432;2022-12-29T03:35:51;100676.20;;;7.14;84.23
66742;BME280;53654;54.152;19.432;2022-12-29T03:38:34;100687.98;;;7.09;83.92
66742;BME280;53654;54.152;19.432;2022-12-29T03:41:10;100692.48;;;7.05;84.14
66742;BME280;53654;54.152;19.432;2022-12-29T03:43:39;100695.59;;;7.03;84.09
66742;BME280;53654;54.152;19.432;2022-12-29T03:46:07;100680.16;;;7.04;84.19
66742;BME280;53654;54.152;19.432;2022-12-29T03:48:36;100679.45;;;7.01;84.13
66742;BME280;53654;54.152;19.432;2022-12-29T03:51:04;100685.86;;;7.01;84.19
66742;BME280;53654;54.152;19.432;2022-12-29T03:53:32;100683.60;;;6.98;84.25
66742;BME280;53654;54.152;19.432;2022-12-29T03:56:00;100680.98;;;6.98;84.31
66742;BME280;53654;54.152;19.432;2022-12-29T03:58:29;100673.35;;;6.97;84.26
66742;BME280;53654;54.152;19.432;2022-12-29T04:01:02;100668.84;;;6.96;84.38
66742;BME280;53654;54.152;19.432;2022-12-29T04:03:30;100669.52;;;6.92;84.27
66742;BME280;53654;54.152;19.432;2022-12-29T04:05:58;100671.58;;;6.89;84.48
66742;BME280;53654;54.152;19.432;2022-12-29T04:08:28;100666.52;;;6.83;84.58
66742;BME280;53654;54.152;19.432;2022-12-29T04:10:56;100668.75;;;6.79;84.80
66742;BME280;53654;54.152;19.432;2022-12-29T04:13:24;100667.17;;;6.77;84.91
66742;BME280;53654;54.152;19.432;2022-12-29T04:15:52;100662.83;;;6.73;84.99
66742;BME280;53654;54.152;19.432;2022-12-29T04:18:20;100664.55;;;6.74;85.24
66742;BME280;53654;54.152;19.432;2022-12-29T04:20:48;100666.13;;;6.75;85.11
66742;BME280;53654;54.152;19.432;2022-12-29T04:23:35;100669.06;;;6.73;85.05
66742;BME280;53654;54.152;19.432;2022-12-29T04:26:06;100667.31;;;6.71;85.17
66742;BME280;53654;54.152;19.432;2022-12-29T04:28:41;100668.16;;;6.69;85.23
66742;BME280;53654;54.152;19.432;2022-12-29T04:31:30;100667.61;;;6.63;85.34
66742;BME280;53654;54.152;19.432;2022-12-29T04:33:59;100669.51;;;6.60;85.54
66742;BME280;53654;54.152;19.432;2022-12-29T04:36:28;100669.85;;;6.61;85.71
66742;BME280;53654;54.152;19.432;2022-12-29T04:38:57;100665.86;;;6.60;85.70
66742;BME280;53654;54.152;19.432;2022-12-29T04:41:27;100661.88;;;6.60;85.70
66742;BME280;53654;54.152;19.432;2022-12-29T04:43:55;100663.77;;;6.59;85.63
66742;BME280;53654;54.152;19.432;2022-12-29T04:46:42;100660.27;;;6.54;85.73
66742;BME280;53654;54.152;19.432;2022-12-29T04:49:19;100655.94;;;6.51;85.76
66742;BME280;53654;54.152;19.432;2022-12-29T04:52:07;100650.18;;;6.47;85.89
66742;BME280;53654;54.152;19.432;2022-12-29T04:54:37;100644.26;;;6.42;86.05
66742;BME280;53654;54.152;19.432;2022-12-29T04:57:10;100643.03;;;6.40;86.19
66742;BME280;53654;54.152;19.432;2022-12-29T04:59:39;100641.45;;;6.38;86.20
66742;BME280;53654;54.152;19.432;2022-12-29T05:02:08;100634.69;;;6.36;86.26
66742;BME280;53654;54.152;19.432;2022-12-29T05:04:37;100634.16;;;6.35;86.22
66742;BME280;53654;54.152;19.432;2022-12-29T05:07:05;100633.81;;;6.35;86.30
66742;BME280;53654;54.152;19.432;2022-12-29T05:09:34;100629.66;;;6.35;86.34
66742;BME280;53654;54.152;19.432;2022-12-29T05:12:02;100623.25;;;6.35;86.26
66742;BME280;53654;54.152;19.432;2022-12-29T05:14:32;100623.93;;;6.34;86.13
66742;BME280;53654;54.152;19.432;2022-12-29T05:17:00;100624.27;;;6.33;86.17
66742;BME280;53654;54.152;19.432;2022-12-29T05:19:28;100624.09;;;6.33;85.99
66742;BME280;53654;54.152;19.432;2022-12-29T05:21:56;100621.67;;;6.33;86.07
66742;BME280;53654;54.152;19.432;2022-12-29T05:24:24;100616.61;;;6.30;86.13
66742;BME280;53654;54.152;19.432;2022-12-29T05:26:55;100619.06;;;6.33;86.18
66742;BME280;53654;54.152;19.432;2022-12-29T05:29:46;100617.16;;;6.32;85.93
66742;BME280;53654;54.152;19.432;2022-12-29T05:32:14;100620.98;;;6.33;85.89
66742;BME280;53654;54.152;19.432;2022-12-29T05:34:43;100617.70;;;6.34;85.86
66742;BME280;53654;54.152;19.432;2022-12-29T05:37:11;100615.44;;;6.35;85.92
66742;BME280;53654;54.152;19.432;2022-12-29T05:39:41;100619.45;;;6.37;85.72
66742;BME280;53654;54.152;19.432;2022-12-29T05:42:09;100616.00;;;6.40;85.71
66742;BME280;53654;54.152;19.432;2022-12-29T05:44:50;100614.46;;;6.43;85.53
66742;BME280;53654;54.152;19.432;2022-12-29T05:47:40;100610.30;;;6.41;85.28
66742;BME280;53654;54.152;19.432;2022-12-29T05:50:26;100604.92;;;6.42;85.42
66742;BME280;53654;54.152;19.432;2022-12-29T05:53:12;100595.58;;;6.43;85.25
66742;BME280;53654;54.152;19.432;2022-12-29T05:55:42;100580.49;;;6.43;85.04
66742;BME280;53654;54.152;19.432;2022-12-29T05:58:16;100577.73;;;6.45;84.86
66742;BME280;53654;54.152;19.432;2022-12-29T06:00:45;100575.13;;;6.45;84.63
66742;BME280;53654;54.152;19.432;2022-12-29T06:03:13;100581.37;;;6.44;84.31
66742;BME280;53654;54.152;19.432;2022-12-29T06:05:42;100581.20;;;6.44;84.30
66742;BME280;53654;54.152;19.432;2022-12-29T06:08:12;100584.83;;;6.43;84.29
66742;BME280;53654;54.152;19.432;2022-12-29T06:10:40;100589.33;;;6.43;84.28
66742;BME280;53654;54.152;19.432;2022-12-29T06:13:09;100591.41;;;6.43;84.12
66742;BME280;53654;54.152;19.432;2022-12-29T06:15:40;100586.04;;;6.43;84.07
66742;BME280;53654;54.152;19.432;2022-12-29T06:18:09;100583.62;;;6.42;83.98
66742;BME280;53654;54.152;19.432;2022-12-29T06:20:46;100586.54;;;6.39;84.10
66742;BME280;53654;54.152;19.432;2022-12-29T06:23:16;100584.97;;;6.38;84.14
66742;BME280;53654;54.152;19.432;2022-12-29T06:25:47;100575.45;;;6.39;84.06
66742;BME280;53654;54.152;19.432;2022-12-29T06:28:16;100574.05;;;6.39;84.11
66742;BME280;53654;54.152;19.432;2022-12-29T06:30:45;100568.33;;;6.37;84.04
66742;BME280;53654;54.152;19.432;2022-12-29T06:33:14;100561.92;;;6.37;83.99
66742;BME280;53654;54.152;19.432;2022-12-29T06:35:44;100562.62;;;6.37;84.04
66742;BME280;53654;54.152;19.432;2022-12-29T06:38:14;100563.48;;;6.38;83.95
66742;BME280;53654;54.152;19.432;2022-12-29T06:40:43;100555.86;;;6.39;83.93
66742;BME280;53654;54.152;19.432;2022-12-29T06:43:44;100560.36;;;6.37;84.11
66742;BME280;53654;54.152;19.432;2022-12-29T06:46:29;100558.11;;;6.38;84.04
66742;BME280;53654;54.152;19.432;2022-12-29T06:48:57;100554.83;;;6.38;83.89
66742;BME280;53654;54.152;19.432;2022-12-29T06:51:25;100549.82;;;6.42;83.81
66742;BME280;53654;54.152;19.432;2022-12-29T06:53:53;100551.38;;;6.41;83.51
66742;BME280;53654;54.152;19.432;2022-12-29T06:56:21;100554.48;;;6.39;83.65
66742;BME280;53654;54.152;19.432;2022-12-29T06:58:49;100557.42;;;6.39;83.65
66742;BME280;53654;54.152;19.432;2022-12-29T07:01:17;100563.52;;;6.43;83.73
66742;BME280;53654;54.152;19.432;2022-12-29T07:03:45;100567.70;;;6.48;83.61
66742;BME280;53654;54.152;19.432;2022-12-29T07:06:14;100564.27;;;6.52;83.76
66742;BME280;53654;54.152;19.432;2022-12-29T07:08:42;100569.49;;;6.59;83.56
66742;BME280;53654;54.152;19.432;2022-12-29T07:11:10;100570.02;;;6.64;83.47
66742;BME280;53654;54.152;19.432;2022-12-29T07:13:38;100571.62;;;6.69;83.33
66742;BME280;53654;54.152;19.432;2022-12-29T07:16:07;100574.58;;;6.73;83.05
66742;BME280;53654;54.152;19.432;2022-12-29T07:18:36;100578.05;;;6.75;82.75
66742;BME280;53654;54.152;19.432;2022-12-29T07:21:04;100576.34;;;6.77;82.66
66742;BME280;53654;54.152;19.432;2022-12-29T07:23:33;100570.61;;;6.77;82.60
66742;BME280;53654;54.152;19.432;2022-12-29T07:26:06;100563.34;;;6.77;82.43
66742;BME280;53654;54.152;19.432;2022-12-29T07:28:35;100558.64;;;6.72;82.31
66742;BME280;53654;54.152;19.432;2022-12-29T07:31:05;100556.36;;;6.69;82.26
66742;BME280;53654;54.152;19.432;2022-12-29T07:33:33;100553.39;;;6.66;82.34
66742;BME280;53654;54.152;19.432;2022-12-29T07:36:01;100551.14;;;6.65;82.45
66742;BME280;53654;54.152;19.432;2022-12-29T07:38:29;100550.97;;;6.65;82.50
66742;BME280;53654;54.152;19.432;2022-12-29T07:40:58;100556.35;;;6.66;82.60
66742;BME280;53654;54.152;19.432;2022-12-29T07:43:27;100557.23;;;6.67;82.62
66742;BME280;53654;54.152;19.432;2022-12-29T07:46:13;100566.77;;;6.68;82.62
66742;BME280;53654;54.152;19.432;2022-12-29T07:49:01;100570.58;;;6.68;82.71
66742;BME280;53654;54.152;19.432;2022-12-29T07:51:29;100574.92;;;6.72;82.74
66742;BME280;53654;54.152;19.432;2022-12-29T07:53:57;100574.07;;;6.75;82.55
66742;BME280;53654;54.152;19.432;2022-12-29T07:56:27;100576.49;;;6.76;82.50
66742;BME280;53654;54.152;19.432;2022-12-29T07:58:56;100578.42;;;6.79;82.53
66742;BME280;53654;54.152;19.432;2022-12-29T08:01:24;100575.31;;;6.82;82.47
66742;BME280;53654;54.152;19.432;2022-12-29T08:03:52;100572.88;;;6.81;82.36
66742;BME280;53654;54.152;19.432;2022-12-29T08:06:24;100566.82;;;6.83;82.43
66742;BME280;53654;54.152;19.432;2022-12-29T08:08:52;100571.52;;;6.86;82.42
66742;BME280;53654;54.152;19.432;2022-12-29T08:11:20;100574.98;;;6.88;82.44
66742;BME280;53654;54.152;19.432;2022-12-29T08:13:49;100569.46;;;6.93;82.58
66742;BME280;53654;54.152;19.432;2022-12-29T08:16:17;100566.87;;;6.96;82.27
66742;BME280;53654;54.152;19.432;2022-12-29T08:18:45;100574.85;;;7.00;82.38
66742;BME280;53654;54.152;19.432;2022-12-29T08:21:13;100570.02;;;7.04;82.22
66742;BME280;53654;54.152;19.432;2022-12-29T08:23:41;100567.60;;;7.06;81.97
66742;BME280;53654;54.152;19.432;2022-12-29T08:26:09;100571.42;;;7.09;81.97
66742;BME280;53654;54.152;19.432;2022-12-29T08:28:38;100569.17;;;7.15;81.90
66742;BME280;53654;54.152;19.432;2022-12-29T08:31:06;100558.61;;;7.21;81.76
66742;BME280;53654;54.152;19.432;2022-12-29T08:33:34;100564.52;;;7.27;81.60
66742;BME280;53654;54.152;19.432;2022-12-29T08:36:04;100560.02;;;7.29;81.34
66742;BME280;53654;54.152;19.432;2022-12-29T08:38:33;100557.25;;;7.33;81.31
66742;BME280;53654;54.152;19.432;2022-12-29T08:41:01;100556.55;;;7.38;81.09
66742;BME280;53654;54.152;19.432;2022-12-29T08:43:30;100559.69;;;7.40;80.98
66742;BME280;53654;54.152;19.432;2022-12-29T08:45:59;100562.98;;;7.41;80.80
66742;BME280;53654;54.152;19.432;2022-12-29T08:48:27;100559.34;;;7.42;80.75
66742;BME280;53654;54.152;19.432;2022-12-29T08:50:55;100563.15;;;7.41;80.77
66742;BME280;53654;54.152;19.432;2022-12-29T08:53:23;100564.20;;;7.44;80.70
66742;BME280;53654;54.152;19.432;2022-12-29T08:55:58;100562.47;;;7.48;80.80
66742;BME280;53654;54.152;19.432;2022-12-29T08:58:33;100558.65;;;7.50;80.62
66742;BME280;53654;54.152;19.432;2022-12-29T09:01:01;100550.33;;;7.50;80.36
66742;BME280;53654;54.152;19.432;2022-12-29T09:03:30;100551.89;;;7.51;80.47
66742;BME280;53654;54.152;19.432;2022-12-29T09:06:18;100551.19;;;7.51;80.47
66742;BME280;53654;54.152;19.432;2022-12-29T09:08:46;100548.59;;;7.54;80.39
66742;BME280;53654;54.152;19.432;2022-12-29T09:11:17;100544.25;;;7.55;80.43
66742;BME280;53654;54.152;19.432;2022-12-29T09:13:46;100543.04;;;7.57;80.44
66742;BME280;53654;54.152;19.432;2022-12-29T09:16:15;100544.42;;;7.60;80.45
66742;BME280;53654;54.152;19.432;2022-12-29T09:18:44;100533.84;;;7.63;80.45
66742;BME280;53654;54.152;19.432;2022-12-29T09:21:12;100529.33;;;7.66;80.32
66742;BME280;53654;54.152;19.432;2022-12-29T09:23:41;100528.80;;;7.68;80.42
66742;BME280;53654;54.152;19.432;2022-12-29T09:26:09;100530.54;;;7.75;80.49
66742;BME280;53654;54.152;19.432;2022-12-29T09:28:37;100529.15;;;7.83;80.29
66742;BME280;53654;54.152;19.432;2022-12-29T09:31:05;100532.09;;;7.91;80.12
66742;BME280;53654;54.152;19.432;2022-12-29T09:33:34;100534.34;;;8.01;79.94
66742;BME280;53654;54.152;19.432;2022-12-29T09:36:02;100536.58;;;8.09;79.71
66742;BME280;53654;54.152;19.432;2022-12-29T09:38:30;100536.04;;;8.19;79.83
66742;BME280;53654;54.152;19.432;2022-12-29T09:43:53;100527.68;;;8.36;79.13
66742;BME280;53654;54.152;19.432;2022-12-29T09:46:29;100526.98;;;8.41;78.89
66742;BME280;53654;54.152;19.432;2022-12-29T09:51:48;100521.35;;;8.58;78.68
66742;BME280;53654;54.152;19.432;2022-12-29T09:57:00;100513.10;;;8.76;78.33
66742;BME280;53654;54.152;19.432;2022-12-29T09:59:42;100508.73;;;8.83;77.94
66742;BME280;53654;54.152;19.432;2022-12-29T10:04:51;100497.36;;;8.92;77.46
66742;BME280;53654;54.152;19.432;2022-12-29T10:07:35;100487.58;;;8.99;77.47
66742;BME280;53654;54.152;19.432;2022-12-29T10:21:34;100462.47;;;9.31;75.87
66742;BME280;53654;54.152;19.432;2022-12-29T10:24:07;100466.61;;;9.35;75.64
66742;BME280;53654;54.152;19.432;2022-12-29T10:26:43;100475.61;;;9.41;75.27
66742;BME280;53654;54.152;19.432;2022-12-29T10:32:06;100473.50;;;9.45;74.98
66742;BME280;53654;54.152;19.432;2022-12-29T10:34:41;100477.15;;;9.46;75.13
66742;BME280;53654;54.152;19.432;2022-12-29T10:39:55;100476.59;;;9.50;74.62
66742;BME280;53654;54.152;19.432;2022-12-29T10:42:31;100481.25;;;9.54;74.50
66742;BME280;53654;54.152;19.432;2022-12-29T10:45:03;100480.36;;;9.56;74.29
66742;BME280;53654;54.152;19.432;2022-12-29T10:47:35;100476.84;;;9.61;74.31
66742;BME280;53654;54.152;19.432;2022-12-29T10:50:07;100469.84;;;9.64;73.84
66742;BME280;53654;54.152;19.432;2022-12-29T10:52:38;100465.45;;;9.68;73.83
66742;BME280;53654;54.152;19.432;2022-12-29T10:55:17;100463.33;;;9.73;73.32
66742;BME280;53654;54.152;19.432;2022-12-29T10:57:47;100461.96;;;9.70;73.20
66742;BME280;53654;54.152;19.432;2022-12-29T11:00:19;100464.56;;;9.70;73.17
66742;BME280;53654;54.152;19.432;2022-12-29T11:06:00;100458.85;;;9.66;73.31
66742;BME280;53654;54.152;19.432;2022-12-29T11:08:37;100455.16;;;9.69;73.33
66742;BME280;53654;54.152;19.432;2022-12-29T11:11:08;100447.99;;;9.73;73.61
66742;BME280;53654;54.152;19.432;2022-12-29T11:13:58;100437.66;;;9.78;73.29
66742;BME280;53654;54.152;19.432;2022-12-29T11:16:32;100435.91;;;9.78;73.18
66742;BME280;53654;54.152;19.432;2022-12-29T11:19:02;100424.95;;;9.77;73.19
66742;BME280;53654;54.152;19.432;2022-12-29T11:21:35;100419.89;;;9.78;73.40
66742;BME280;53654;54.152;19.432;2022-12-29T11:24:26;100431.75;;;9.77;73.42
66742;BME280;53654;54.152;19.432;2022-12-29T11:27:14;100436.25;;;9.79;74.06
66742;BME280;53654;54.152;19.432;2022-12-29T11:29:44;100442.34;;;9.80;74.40
66742;BME280;53654;54.152;19.432;2022-12-29T11:32:28;100443.67;;;9.87;74.48
66742;BME280;53654;54.152;19.432;2022-12-29T11:35:00;100440.23;;;9.82;74.44
66742;BME280;53654;54.152;19.432;2022-12-29T11:37:32;100440.20;;;9.85;74.43
66742;BME280;53654;54.152;19.432;2022-12-29T11:40:15;100441.94;;;9.85;74.75
66742;BME280;53654;54.152;19.432;2022-12-29T11:43:00;100449.42;;;9.87;74.93
66742;BME280;53654;54.152;19.432;2022-12-29T11:45:34;100440.05;;;9.83;74.99
66742;BME280;53654;54.152;19.432;2022-12-29T11:48:09;100444.91;;;9.84;75.12
66742;BME280;53654;54.152;19.432;2022-12-29T11:50:50;100442.29;;;9.86;75.39
66742;BME280;53654;54.152;19.432;2022-12-29T11:56:08;100439.69;;;9.84;75.76
66742;BME280;53654;54.152;19.432;2022-12-29T11:58:38;100439.36;;;9.83;75.87
66742;BME280;53654;54.152;19.432;2022-12-29T12:03:47;100436.27;;;9.77;76.37
66742;BME280;53654;54.152;19.432;2022-12-29T12:06:19;100437.19;;;9.74;76.50
66742;BME280;53654;54.152;19.432;2022-12-29T12:09:01;100441.03;;;9.73;76.84
66742;BME280;53654;54.152;19.432;2022-12-29T12:11:37;100434.92;;;9.73;76.80
66742;BME280;53654;54.152;19.432;2022-12-29T12:17:24;100431.81;;;9.71;77.37
66742;BME280;53654;54.152;19.432;2022-12-29T12:22:42;100428.46;;;9.76;77.09
66742;BME280;53654;54.152;19.432;2022-12-29T12:25:48;100425.30;;;9.77;77.13
66742;BME280;53654;54.152;19.432;2022-12-29T12:28:44;100419.58;;;9.76;77.09
66742;BME280;53654;54.152;19.432;2022-12-29T12:31:35;100423.25;;;9.74;76.89
66742;BME280;53654;54.152;19.432;2022-12-29T12:34:46;100424.14;;;9.72;76.90
66742;BME280;53654;54.152;19.432;2022-12-29T12:37:26;100417.67;;;9.74;76.87
66742;BME280;53654;54.152;19.432;2022-12-29T12:43:28;100413.37;;;9.69;76.42
66742;BME280;53654;54.152;19.432;2022-12-29T13:00:18;100413.98;;;9.78;75.99
66742;BME280;53654;54.152;19.432;2022-12-29T13:03:03;100411.52;;;9.80;75.85
66742;BME280;53654;54.152;19.432;2022-12-29T13:19:25;100407.61;;;9.86;75.12
66742;BME280;53654;54.152;19.432;2022-12-29T13:37:47;100425.73;;;9.86;75.15
66742;BME280;53654;54.152;19.432;2022-12-29T13:40:19;100432.84;;;9.89;75.08
66742;BME280;53654;54.152;19.432;2022-12-29T13:42:51;100435.43;;;9.91;75.07
66742;BME280;53654;54.152;19.432;2022-12-29T13:45:25;100425.97;;;9.96;75.08
66742;BME280;53654;54.152;19.432;2022-12-29T13:47:57;100421.59;;;9.98;74.91
66742;BME280;53654;54.152;19.432;2022-12-29T13:50:32;100424.02;;;9.99;74.86
66742;BME280;53654;54.152;19.432;2022-12-29T13:56:06;100428.36;;;10.01;74.75
66742;BME280;53654;54.152;19.432;2022-12-29T13:58:50;100429.94;;;9.99;74.70
66742;BME280;53654;54.152;19.432;2022-12-29T14:01:31;100431.23;;;9.94;74.77
66742;BME280;53654;54.152;19.432;2022-12-29T14:04:13;100428.70;;;9.86;74.99
66742;BME280;53654;54.152;19.432;2022-12-29T14:06:43;100435.52;;;9.84;75.20
66742;BME280;53654;54.152;19.432;2022-12-29T14:14:51;100446.07;;;9.74;75.69
66742;BME280;53654;54.152;19.432;2022-12-29T14:17:20;100447.86;;;9.69;75.76
66742;BME280;53654;54.152;19.432;2022-12-29T14:19:52;100448.41;;;9.66;75.99
66742;BME280;53654;54.152;19.432;2022-12-29T14:22:26;100446.70;;;9.62;75.97
66742;BME280;53654;54.152;19.432;2022-12-29T14:25:01;100447.59;;;9.60;76.04
66742;BME280;53654;54.152;19.432;2022-12-29T14:29:57;100451.45;;;9.57;75.98
66742;BME280;53654;54.152;19.432;2022-12-29T14:35:00;100453.63;;;9.47;75.97
66742;BME280;53654;54.152;19.432;2022-12-29T14:38:14;100450.25;;;9.35;76.06
66742;BME280;53654;54.152;19.432;2022-12-29T14:40:44;100453.63;;;9.26;76.29
66742;BME280;53654;54.152;19.432;2022-12-29T14:43:19;100453.48;;;9.24;76.46
66742;BME280;53654;54.152;19.432;2022-12-29T14:45:54;100453.30;;;9.23;76.77
66742;BME280;53654;54.152;19.432;2022-12-29T14:48:39;100452.24;;;9.25;76.65
66742;BME280;53654;54.152;19.432;2022-12-29T14:51:18;100455.56;;;9.23;76.46
66742;BME280;53654;54.152;19.432;2022-12-29T14:53:48;100455.55;;;9.24;76.41
66742;BME280;53654;54.152;19.432;2022-12-29T14:56:20;100454.84;;;9.27;76.41
66742;BME280;53654;54.152;19.432;2022-12-29T14:58:57;100456.05;;;9.27;76.03
66742;BME280;53654;54.152;19.432;2022-12-29T15:01:47;100455.04;;;9.24;76.10
66742;BME280;53654;54.152;19.432;2022-12-29T15:04:21;100456.09;;;9.23;76.22
66742;BME280;53654;54.152;19.432;2022-12-29T15:06:50;100452.96;;;9.23;76.14
66742;BME280;53654;54.152;19.432;2022-12-29T15:09:30;100454.71;;;9.21;75.90
66742;BME280;53654;54.152;19.432;2022-12-29T15:12:11;100450.59;;;9.13;75.96
66742;BME280;53654;54.152;19.432;2022-12-29T15:14:58;100455.48;;;9.09;76.26
66742;BME280;53654;54.152;19.432;2022-12-29T15:17:29;100451.70;;;9.03;76.28
66742;BME280;53654;54.152;19.432;2022-12-29T15:19:59;100450.67;;;9.01;76.30
66742;BME280;53654;54.152;19.432;2022-12-29T15:22:30;100450.00;;;8.98;76.37
66742;BME280;53654;54.152;19.432;2022-12-29T15:24:58;100444.63;;;8.94;76.33
66742;BME280;53654;54.152;19.432;2022-12-29T15:27:26;100449.17;;;8.93;76.45
66742;BME280;53654;54.152;19.432;2022-12-29T15:29:59;100453.87;;;8.92;76.34
66742;BME280;53654;54.152;19.432;2022-12-29T15:32:48;100449.70;;;8.90;76.36
66742;BME280;53654;54.152;19.432;2022-12-29T15:35:31;100448.69;;;8.88;76.52
66742;BME280;53654;54.152;19.432;2022-12-29T15:38:12;100450.27;;;8.86;76.20
66742;BME280;53654;54.152;19.432;2022-12-29T15:40:44;100452.70;;;8.83;76.06
66742;BME280;53654;54.152;19.432;2022-12-29T15:46:00;100456.92;;;8.77;76.08
66742;BME280;53654;54.152;19.432;2022-12-29T15:48:29;100459.54;;;8.76;76.16